»·PEaware :: N365KS L52-L88

N365KS :: L52-L88

FLIGHT INFORMATION

Flight Status: Arrived
Operator: Privately registered:
United States
More flights under this callsign
Pilot: SimClub (45424)
Aircraft: CIRRUS SR-22
(SR22)
More flights by this aircraft type
Origin: L52 Oceano Co
United States
Destination: L88 New Cuyama
United States
More flights between these airports :: More routes between these airports
Route: WYNNR
File this flight plan on PilotEdge
Remarks:
Altitude:
(Current/Filed)
7,500ft
Speed:
(Current/Filed)
150kts
Departed: 30-Nov-23 08:48 AM
Arrived: 30-Nov-23 09:14 AM
Distance/Time
Traveled:
47nm/0:26
Distance/Time
To Go:
Arrived

Flight Plot

Page will automatically refresh every two minutes.


Map Options




Map Legend


Flown Route
Filed Route
Departure Airport
Arrival Airport
Navaid (VOR, NDB)
Fix

Horizontal Profiles

Position Reports

Time Latitude Longitude Heading Altitude Ground
Speed
30-Nov-23 08:06 35.102339 -120.622445 210 17ft 0kts
30-Nov-23 08:07 35.102339 -120.622445 210 17ft 0kts
30-Nov-23 08:08 35.102339 -120.622446 210 17ft 0kts
30-Nov-23 08:09 35.102339 -120.622446 210 17ft 0kts
30-Nov-23 08:10 35.102338 -120.622446 210 17ft 0kts
30-Nov-23 08:11 35.102338 -120.622446 210 17ft 0kts
30-Nov-23 08:12 35.102338 -120.622446 210 17ft 0kts
30-Nov-23 08:13 35.102338 -120.622446 210 17ft 0kts
30-Nov-23 08:14 35.102337 -120.622447 210 17ft 0kts
30-Nov-23 08:15 35.102337 -120.622447 210 17ft 0kts
30-Nov-23 08:16 35.102337 -120.622447 210 17ft 0kts
30-Nov-23 08:17 35.102337 -120.622447 210 17ft 0kts
30-Nov-23 08:18 35.102336 -120.622447 210 17ft 0kts
30-Nov-23 08:19 35.102336 -120.622448 210 17ft 0kts
30-Nov-23 08:20 35.102336 -120.622448 210 17ft 0kts
30-Nov-23 08:21 35.102335 -120.622448 210 17ft 0kts
30-Nov-23 08:22 35.102335 -120.622448 210 17ft 0kts
30-Nov-23 08:23 35.102335 -120.622448 210 17ft 0kts
30-Nov-23 08:24 35.102335 -120.622449 210 17ft 0kts
30-Nov-23 08:25 35.102334 -120.622449 210 17ft 0kts
30-Nov-23 08:26 35.102334 -120.622449 210 17ft 0kts
30-Nov-23 08:27 35.102334 -120.622449 210 17ft 0kts
30-Nov-23 08:28 35.102334 -120.622449 210 17ft 0kts
30-Nov-23 08:29 35.102333 -120.622450 210 17ft 0kts
30-Nov-23 08:30 35.102333 -120.622450 210 17ft 0kts
30-Nov-23 08:31 35.102333 -120.622450 210 17ft 0kts
30-Nov-23 08:32 35.102332 -120.622450 210 17ft 0kts
30-Nov-23 08:33 35.102332 -120.622450 210 17ft 0kts
30-Nov-23 08:34 35.102332 -120.622450 210 17ft 0kts
30-Nov-23 08:35 35.102332 -120.622451 210 17ft 0kts
30-Nov-23 08:36 35.102331 -120.622451 210 17ft 0kts
30-Nov-23 08:37 35.102328 -120.622453 208 17ft 0kts
30-Nov-23 08:38 35.102327 -120.622454 208 17ft 0kts
30-Nov-23 08:39 35.102326 -120.622455 208 17ft 0kts
30-Nov-23 08:40 35.102325 -120.622455 208 17ft 0kts
30-Nov-23 08:41 35.102324 -120.622456 208 17ft 0kts
30-Nov-23 08:42 35.102323 -120.622456 208 17ft 0kts
30-Nov-23 08:43 35.102292 -120.622477 207 17ft 0kts
30-Nov-23 08:44 35.101456 -120.622574 212 17ft 1kts
30-Nov-23 08:45 35.099806 -120.620048 124 17ft 11kts
30-Nov-23 08:46 35.099670 -120.619318 33 17ft 5kts
30-Nov-23 08:47 35.104047 -120.626802 307 159ft 92kts
30-Nov-23 08:48 35.112035 -120.660923 231 1561ft 126kts
30-Nov-23 08:49 35.085693 -120.650709 92 3121ft 132kts
30-Nov-23 08:50 35.089782 -120.605985 85 4687ft 137kts
30-Nov-23 08:51 35.093442 -120.558947 86 6248ft 141kts
30-Nov-23 08:52 35.096691 -120.509536 84 7467ft 163kts
30-Nov-23 08:53 35.100806 -120.451773 85 7623ft 169kts
30-Nov-23 08:54 35.105278 -120.393387 83 7492ft 174kts
30-Nov-23 08:55 35.108920 -120.337136 85 7498ft 161kts
30-Nov-23 08:56 35.112710 -120.283205 87 7464ft 161kts
30-Nov-23 08:57 35.116436 -120.229560 84 7497ft 159kts
30-Nov-23 08:58 35.105758 -120.178209 111 7498ft 159kts
30-Nov-23 08:59 35.088256 -120.128583 112 7469ft 159kts
30-Nov-23 09:00 35.071760 -120.077761 109 6854ft 161kts
30-Nov-23 09:01 35.055561 -120.028578 113 6428ft 152kts
30-Nov-23 09:02 35.038784 -119.979470 109 5969ft 156kts
30-Nov-23 09:03 35.021837 -119.929806 113 5452ft 158kts
30-Nov-23 09:04 34.999742 -119.883313 134 4838ft 162kts
30-Nov-23 09:05 34.968832 -119.846069 130 4578ft 149kts
30-Nov-23 09:06 34.946384 -119.802564 118 4120ft 158kts
30-Nov-23 09:07 34.927571 -119.756897 115 3907ft 146kts
30-Nov-23 09:08 34.905167 -119.715788 111 3640ft 145kts
30-Nov-23 09:09 34.913036 -119.675657 13 3474ft 148kts
30-Nov-23 09:10 34.933842 -119.708974 278 3425ft 135kts
30-Nov-23 09:11 34.951115 -119.734647 37 2957ft 118kts
30-Nov-23 09:12 34.948929 -119.708095 119 2595ft 81kts
30-Nov-23 09:13 34.940488 -119.686856 114 2206ft 0kts
30-Nov-23 09:14 34.942201 -119.690832 307 2206ft 13kts
30-Nov-23 09:15 34.943014 -119.690529 187 2206ft 0kts
30-Nov-23 09:16 34.943014 -119.690529 187 2206ft 0kts
30-Nov-23 09:17 34.943014 -119.690529 187 2206ft 0kts

Navigation Log

Ident Type
Flight plan parsing failed, navigation log unavailable